Time;durP1;ratioP1;P1;durP2;ratioP2;P2;SDS_P1;SDS_P2;PMS_P1;PMS_P2;Temp;Humidity;BMP_temperature;BMP_pressure;BME280_temperature;BME280_humidity;BME280_pressure;Samples;Min_cycle;Max_cycle;Signal;HPM_P1;HPM_P2
2022/09/01 00:00:40;;;;;;;7.78;1.42;;;17.10;66.50;;;;;;4967929;28;20506;-81
2022/09/01 00:03:08;;;;;;;4.97;1.20;;;17.00;66.90;;;;;;4987667;28;20036;-82
2022/09/01 00:05:35;;;;;;;2.85;1.00;;;17.00;67.00;;;;;;4981488;28;20027;-82
2022/09/01 00:08:00;;;;;;;3.95;1.42;;;16.90;66.50;;;;;;4970027;28;20032;-82
2022/09/01 00:10:26;;;;;;;2.92;1.20;;;16.90;67.20;;;;;;4979626;28;20045;-81
2022/09/01 00:12:52;;;;;;;5.15;1.42;;;16.90;67.50;;;;;;4952683;28;20077;-82
2022/09/01 00:15:17;;;;;;;5.10;1.23;;;16.90;66.90;;;;;;4969057;28;20042;-82
2022/09/01 00:17:43;;;;;;;3.38;1.17;;;17.00;68.30;;;;;;4972027;28;20030;-81
2022/09/01 00:20:09;;;;;;;5.38;0.98;;;17.00;68.00;;;;;;4957309;28;20429;-81
2022/09/01 00:22:34;;;;;;;3.85;1.52;;;16.90;67.70;;;;;;4965427;28;20062;-82
2022/09/01 00:25:00;;;;;;;2.45;1.30;;;16.90;68.40;;;;;;4972079;28;20044;-81
2022/09/01 00:27:26;;;;;;;4.43;1.48;;;16.90;67.50;;;;;;4978946;28;20455;-82
2022/09/01 00:29:51;;;;;;;5.10;1.40;;;16.90;67.80;;;;;;4968538;28;20080;-82
2022/09/01 00:32:17;;;;;;;1.27;1.05;;;16.90;68.00;;;;;;4951253;28;20038;-81
2022/09/01 00:34:43;;;;;;;3.17;1.20;;;16.90;67.10;;;;;;4970502;28;20025;-82
2022/09/01 00:37:08;;;;;;;4.65;1.23;;;16.80;68.10;;;;;;4958012;28;20488;-81
2022/09/01 00:39:34;;;;;;;2.15;1.35;;;16.80;68.10;;;;;;4968868;28;20494;-82
2022/09/01 00:41:59;;;;;;;3.45;1.38;;;16.80;67.90;;;;;;4972450;28;20481;-82
2022/09/01 00:44:26;;;;;;;4.32;1.10;;;16.80;68.00;;;;;;4982543;28;20137;-82
2022/09/01 00:46:54;;;;;;;5.03;1.45;;;16.70;69.10;;;;;;4981416;28;20037;-82
2022/09/01 00:49:23;;;;;;;4.25;1.25;;;16.70;68.50;;;;;;4979824;28;20049;-82
2022/09/01 00:51:51;;;;;;;6.80;1.63;;;16.70;67.80;;;;;;4967010;28;20483;-82
2022/09/01 00:54:22;;;;;;;6.03;1.42;;;16.80;67.90;;;;;;4982655;28;20383;-83
2022/09/01 00:56:47;;;;;;;4.03;1.42;;;16.80;68.00;;;;;;4985258;28;20031;-83
2022/09/01 00:59:13;;;;;;;2.65;1.27;;;16.80;67.50;;;;;;4956895;28;20041;-82
2022/09/01 01:01:39;;;;;;;3.53;1.30;;;16.80;66.50;;;;;;4972074;28;20041;-82
2022/09/01 01:04:05;;;;;;;4.07;1.40;;;16.70;66.80;;;;;;4991234;28;20045;-82
2022/09/01 01:06:32;;;;;;;2.85;1.13;;;16.80;66.60;;;;;;4970341;28;20042;-82
2022/09/01 01:08:59;;;;;;;4.45;1.60;;;16.70;67.50;;;;;;4956902;28;20058;-81
2022/09/01 01:11:26;;;;;;;3.33;1.38;;;16.70;67.00;;;;;;4977155;28;20113;-81
2022/09/01 01:13:56;;;;;;;3.67;1.10;;;16.60;67.10;;;;;;4984883;28;20569;-82
2022/09/01 01:16:23;;;;;;;2.83;1.50;;;16.60;67.60;;;;;;4982212;28;20533;-82
2022/09/01 01:18:49;;;;;;;4.95;1.40;;;16.50;68.30;;;;;;4982541;28;20068;-81
2022/09/01 01:24:08;;;;;;;2.15;1.30;;;16.40;68.40;;;;;;4983430;28;20041;-83
2022/09/01 01:26:34;;;;;;;2.63;0.98;;;16.30;69.40;;;;;;4999305;28;20035;-82
2022/09/01 01:29:01;;;;;;;1.45;1.30;;;16.30;69.40;;;;;;4985212;28;20025;-82
2022/09/01 01:31:27;;;;;;;2.92;1.30;;;16.30;68.80;;;;;;5000718;28;20488;-81
2022/09/01 01:33:54;;;;;;;3.28;1.30;;;16.30;68.10;;;;;;4985525;28;20117;-81
2022/09/01 01:36:31;;;;;;;1.42;1.10;;;16.30;67.40;;;;;;4982245;28;20114;-81
2022/09/01 01:39:00;;;;;;;1.40;1.00;;;16.20;68.70;;;;;;4974888;28;20040;-82
2022/09/01 01:41:26;;;;;;;2.67;1.38;;;16.20;67.20;;;;;;4971923;28;20033;-82
2022/09/01 01:43:52;;;;;;;2.67;1.20;;;16.10;70.30;;;;;;4970243;28;20030;-82
2022/09/01 01:46:17;;;;;;;2.38;1.30;;;16.10;67.80;;;;;;4969214;28;20137;-81
2022/09/01 01:48:43;;;;;;;2.25;1.60;;;16.00;68.40;;;;;;4981969;28;20038;-81
2022/09/01 01:51:10;;;;;;;1.33;1.20;;;16.00;70.40;;;;;;4983578;28;20490;-81
2022/09/01 01:53:36;;;;;;;5.60;1.40;;;15.90;69.70;;;;;;4980004;28;20559;-81
2022/09/01 01:56:02;;;;;;;3.88;1.20;;;15.80;68.20;;;;;;4971654;28;20033;-81
2022/09/01 01:58:27;;;;;;;3.67;1.42;;;15.70;74.10;;;;;;4983505;28;20030;-81
2022/09/01 02:00:54;;;;;;;2.70;1.40;;;15.60;73.60;;;;;;4966608;28;20465;-80
2022/09/01 02:03:21;;;;;;;1.75;1.38;;;15.40;72.50;;;;;;4981995;28;20038;-81
2022/09/01 02:05:48;;;;;;;3.50;1.50;;;15.40;70.80;;;;;;4965571;28;20391;-82
2022/09/01 02:08:14;;;;;;;6.15;2.65;;;15.30;71.90;;;;;;4980029;28;20056;-81
2022/09/01 02:10:43;;;;;;;3.72;1.35;;;15.10;70.30;;;;;;4958434;28;20527;-81
2022/09/01 02:13:15;;;;;;;4.18;1.60;;;15.10;75.80;;;;;;4956660;28;20377;-82
2022/09/01 02:15:44;;;;;;;3.58;1.45;;;15.10;74.60;;;;;;4972286;28;20033;-80
2022/09/01 02:18:18;;;;;;;2.75;1.38;;;15.20;76.50;;;;;;4957124;28;20061;-79
2022/09/01 02:20:48;;;;;;;3.42;1.60;;;15.10;74.50;;;;;;4973241;28;20452;-81
2022/09/01 02:23:15;;;;;;;2.50;1.30;;;15.10;76.10;;;;;;4974266;28;20089;-80
2022/09/01 02:25:43;;;;;;;3.80;2.20;;;15.10;76.60;;;;;;4973330;28;20150;-81
2022/09/01 02:28:14;;;;;;;2.42;1.33;;;15.00;76.10;;;;;;4970756;28;20069;-80
2022/09/01 02:30:44;;;;;;;3.38;1.50;;;15.00;77.40;;;;;;4975019;28;20128;-80
2022/09/01 02:33:10;;;;;;;3.45;1.80;;;15.00;73.80;;;;;;4982803;28;20038;-81
2022/09/01 02:35:36;;;;;;;3.47;1.77;;;14.90;74.00;;;;;;4972215;28;20038;-81
2022/09/01 02:38:03;;;;;;;2.72;1.70;;;15.00;73.70;;;;;;4987053;28;20517;-81
2022/09/01 02:40:30;;;;;;;1.25;0.95;;;14.90;74.80;;;;;;4971688;28;20034;-80
2022/09/01 02:42:57;;;;;;;4.00;1.40;;;14.90;72.10;;;;;;4970400;28;20038;-80
2022/09/01 02:45:23;;;;;;;1.75;1.50;;;14.90;74.00;;;;;;4975138;28;20034;-80
2022/09/01 02:47:50;;;;;;;3.38;2.15;;;14.80;74.60;;;;;;4972941;28;20122;-81
2022/09/01 02:50:17;;;;;;;1.35;1.20;;;14.80;73.70;;;;;;4968787;28;20064;-80
2022/09/01 02:52:48;;;;;;;13.75;1.75;;;14.70;75.20;;;;;;4983740;28;20039;-76
2022/09/01 02:55:20;;;;;;;2.58;1.50;;;14.70;75.40;;;;;;4982187;28;20095;-76
2022/09/01 02:57:49;;;;;;;3.45;1.42;;;14.70;73.60;;;;;;4977139;28;20129;-76
2022/09/01 03:00:27;;;;;;;2.80;1.40;;;14.60;73.70;;;;;;4972465;28;20417;-77
2022/09/01 03:02:55;;;;;;;8.88;1.55;;;14.60;75.30;;;;;;4977173;28;20054;-76
2022/09/01 03:05:24;;;;;;;3.42;1.95;;;14.60;75.00;;;;;;4968563;28;20438;-76
2022/09/01 03:07:53;;;;;;;4.40;1.58;;;14.70;73.70;;;;;;4988450;28;20129;-76
2022/09/01 03:10:20;;;;;;;5.10;1.40;;;14.70;75.30;;;;;;4968812;28;20038;-76
2022/09/01 03:12:46;;;;;;;7.13;1.98;;;14.60;76.70;;;;;;4970152;28;20030;-77
2022/09/01 03:15:12;;;;;;;3.42;1.45;;;14.70;75.90;;;;;;4971825;28;20042;-77
2022/09/01 03:17:37;;;;;;;4.00;1.27;;;14.60;75.00;;;;;;4973717;28;20525;-76
2022/09/01 03:20:03;;;;;;;3.17;1.92;;;14.70;74.80;;;;;;4981939;28;20125;-77
2022/09/01 03:22:29;;;;;;;2.55;1.45;;;14.70;73.30;;;;;;4980425;28;20089;-77
2022/09/01 03:24:55;;;;;;;3.35;1.50;;;14.60;74.30;;;;;;4970550;28;20149;-76
2022/09/01 03:27:20;;;;;;;7.22;1.58;;;14.50;76.30;;;;;;4970401;28;20565;-77
2022/09/01 03:29:46;;;;;;;5.68;1.67;;;14.50;75.30;;;;;;4990268;28;20124;-76
2022/09/01 03:32:11;;;;;;;4.90;1.33;;;14.50;75.90;;;;;;4996649;28;20091;-76
2022/09/01 03:34:38;;;;;;;2.00;1.58;;;14.40;75.80;;;;;;4970735;28;20034;-77
2022/09/01 03:37:08;;;;;;;2.42;1.55;;;14.40;76.90;;;;;;4982290;28;20407;-76
2022/09/01 03:39:34;;;;;;;3.65;1.67;;;14.40;76.70;;;;;;4970463;28;20030;-77
2022/09/01 03:42:00;;;;;;;6.15;1.88;;;14.30;76.90;;;;;;4986448;28;20069;-77
2022/09/01 03:44:25;;;;;;;2.78;1.40;;;14.30;75.50;;;;;;4978539;28;20034;-76
2022/09/01 03:46:51;;;;;;;2.53;1.58;;;14.30;76.30;;;;;;4980647;28;20037;-76
2022/09/01 03:49:23;;;;;;;6.68;2.05;;;14.30;74.80;;;;;;4961923;28;20129;-77
2022/09/01 03:51:49;;;;;;;3.67;1.75;;;14.10;76.30;;;;;;4975007;28;20045;-77
2022/09/01 03:54:16;;;;;;;5.18;1.50;;;14.20;74.50;;;;;;4983673;28;20577;-76
2022/09/01 03:56:44;;;;;;;3.05;1.73;;;14.30;73.00;;;;;;4980476;28;20445;-76
2022/09/01 03:59:15;;;;;;;6.45;2.20;;;14.20;74.10;;;;;;4985046;28;20461;-77
2022/09/01 04:01:42;;;;;;;2.92;1.40;;;14.20;75.80;;;;;;4982833;28;20030;-76
2022/09/01 04:04:12;;;;;;;2.15;1.27;;;14.20;73.50;;;;;;4973573;28;20482;-76
2022/09/01 04:06:38;;;;;;;5.80;1.88;;;14.20;72.80;;;;;;4981387;28;20125;-76
2022/09/01 04:09:04;;;;;;;1.98;1.55;;;14.20;73.90;;;;;;4967788;28;20033;-76
2022/09/01 04:11:30;;;;;;;4.55;1.90;;;14.00;75.50;;;;;;4981193;28;20048;-76
2022/09/01 04:13:56;;;;;;;3.90;1.58;;;13.80;77.00;;;;;;4985006;28;20490;-76
2022/09/01 04:19:18;;;;;;;7.30;1.85;;;13.60;76.00;;;;;;5001691;28;20045;-76
2022/09/01 04:21:49;;;;;;;2.30;1.73;;;13.40;76.30;;;;;;4980767;28;20526;-77
2022/09/01 04:24:15;;;;;;;4.13;1.70;;;13.50;79.50;;;;;;4972731;28;20034;-76
2022/09/01 04:26:40;;;;;;;3.13;1.98;;;13.50;78.40;;;;;;4969854;28;20462;-76
2022/09/01 04:29:07;;;;;;;6.72;2.00;;;13.50;78.60;;;;;;4974594;28;20036;-77
2022/09/01 04:31:34;;;;;;;7.97;2.25;;;13.50;80.60;;;;;;4955955;28;20043;-76
2022/09/01 04:34:00;;;;;;;6.97;3.35;;;13.30;80.30;;;;;;4984461;28;20037;-76
2022/09/01 04:36:29;;;;;;;2.38;2.17;;;13.30;81.90;;;;;;4978414;28;20027;-76
2022/09/01 04:39:00;;;;;;;13.40;1.85;;;13.30;81.70;;;;;;4971082;28;20545;-77
2022/09/01 04:41:30;;;;;;;4.72;2.10;;;13.30;84.20;;;;;;4969237;28;20031;-76
2022/09/01 04:43:57;;;;;;;2.80;2.03;;;13.30;82.60;;;;;;4972547;28;20081;-76
2022/09/01 04:46:27;;;;;;;4.35;2.00;;;13.30;81.60;;;;;;4982104;28;20086;-77
2022/09/01 04:48:52;;;;;;;7.25;1.80;;;13.40;80.30;;;;;;4970723;28;20034;-77
2022/09/01 04:51:19;;;;;;;6.72;1.80;;;13.40;79.40;;;;;;4954784;28;20438;-77
2022/09/01 04:53:47;;;;;;;2.17;1.90;;;13.40;81.60;;;;;;4967094;28;20632;-78
2022/09/01 04:56:21;;;;;;;6.10;2.30;;;13.30;81.80;;;;;;4977844;28;20085;-77
2022/09/01 04:58:48;;;;;;;8.15;2.63;;;13.10;81.90;;;;;;4968623;28;20398;-78
2022/09/01 05:01:18;;;;;;;6.38;2.20;;;12.90;80.50;;;;;;4964538;28;20034;-77
2022/09/01 05:03:44;;;;;;;9.10;2.30;;;12.80;81.50;;;;;;4983787;28;20145;-78
2022/09/01 05:06:17;;;;;;;4.25;2.47;;;12.80;82.00;;;;;;4978786;28;20037;-77
2022/09/01 05:08:44;;;;;;;10.57;2.60;;;12.80;83.80;;;;;;4967535;28;20041;-77
2022/09/01 05:11:10;;;;;;;5.18;2.47;;;12.90;88.80;;;;;;4985575;28;20037;-77
2022/09/01 05:13:38;;;;;;;4.28;2.03;;;13.10;90.70;;;;;;4969365;28;20026;-77
2022/09/01 05:16:11;;;;;;;4.00;1.67;;;13.10;90.70;;;;;;4964527;28;20030;-78
2022/09/01 05:18:39;;;;;;;4.70;2.15;;;13.10;92.00;;;;;;4979812;28;20030;-77
2022/09/01 05:21:08;;;;;;;2.83;1.85;;;13.10;91.00;;;;;;4965235;28;20454;-77
2022/09/01 05:23:35;;;;;;;3.65;1.90;;;13.10;91.10;;;;;;4979972;28;20037;-78
2022/09/01 05:26:13;;;;;;;4.57;2.28;;;13.20;92.20;;;;;;4973417;28;20116;-77
2022/09/01 05:28:40;;;;;;;5.85;2.35;;;13.30;92.20;;;;;;4984684;28;20037;-77
2022/09/01 05:31:05;;;;;;;4.63;2.22;;;13.30;91.10;;;;;;4954407;28;20026;-77
2022/09/01 05:33:35;;;;;;;3.92;2.08;;;13.30;89.70;;;;;;4977843;28;20030;-77
2022/09/01 05:36:03;;;;;;;6.28;2.33;;;13.40;91.90;;;;;;4971689;28;20030;-78
2022/09/01 05:38:30;;;;;;;4.55;2.58;;;13.50;91.00;;;;;;4976496;28;20520;-76
2022/09/01 05:41:05;;;;;;;3.42;2.58;;;13.40;90.70;;;;;;4958156;28;20087;-77
2022/09/01 05:43:32;;;;;;;9.75;2.33;;;13.60;92.00;;;;;;4967213;28;20038;-77
2022/09/01 05:45:59;;;;;;;4.28;2.10;;;13.70;91.00;;;;;;4968962;28;20092;-77
2022/09/01 05:48:25;;;;;;;7.22;2.47;;;13.70;91.00;;;;;;4977132;28;20089;-77
2022/09/01 05:50:55;;;;;;;3.50;2.30;;;13.80;91.90;;;;;;4969969;28;20040;-77
2022/09/01 05:53:24;;;;;;;3.47;2.05;;;13.80;89.20;;;;;;4967716;28;20026;-77
2022/09/01 05:55:51;;;;;;;3.80;1.90;;;13.90;89.20;;;;;;4976860;28;20025;-76
2022/09/01 05:58:17;;;;;;;3.83;2.35;;;13.90;90.80;;;;;;4972187;28;20061;-77
2022/09/01 06:00:45;;;;;;;8.73;2.13;;;14.00;89.90;;;;;;4983392;28;20383;-77
2022/09/01 06:03:13;;;;;;;3.95;2.08;;;14.10;91.20;;;;;;4983897;28;20034;-77
2022/09/01 06:05:38;;;;;;;5.50;2.40;;;14.20;90.30;;;;;;4988071;28;20031;-77
2022/09/01 06:08:04;;;;;;;6.35;2.30;;;14.20;89.80;;;;;;4958627;28;20031;-77
2022/09/01 06:10:31;;;;;;;2.97;1.90;;;14.30;88.70;;;;;;4967451;28;20040;-78
2022/09/01 06:13:00;;;;;;;5.47;2.10;;;14.40;90.00;;;;;;4965751;28;20033;-77
2022/09/01 06:15:28;;;;;;;2.50;2.10;;;14.50;88.50;;;;;;4984696;28;20030;-77
2022/09/01 06:17:53;;;;;;;9.77;2.38;;;14.60;88.90;;;;;;4973393;28;20058;-77
2022/09/01 06:20:21;;;;;;;4.15;2.45;;;14.60;88.80;;;;;;4984166;28;20030;-77
2022/09/01 06:22:47;;;;;;;4.63;1.98;;;14.70;89.60;;;;;;4956816;28;20030;-77
2022/09/01 06:25:16;;;;;;;5.03;2.30;;;14.80;87.80;;;;;;4958183;28;20041;-77
2022/09/01 06:27:43;;;;;;;7.32;2.50;;;14.90;89.80;;;;;;4970066;28;20498;-77
2022/09/01 06:30:16;;;;;;;6.82;2.17;;;15.00;88.90;;;;;;4960733;28;20409;-77
2022/09/01 06:32:43;;;;;;;2.88;2.10;;;15.00;88.50;;;;;;4971121;28;20039;-76
2022/09/01 06:35:10;;;;;;;2.40;1.77;;;15.20;89.40;;;;;;4984845;28;20042;-77
2022/09/01 06:37:37;;;;;;;3.88;1.88;;;15.20;88.70;;;;;;4975293;28;20592;-77
2022/09/01 06:40:03;;;;;;;11.45;3.25;;;15.30;88.00;;;;;;4990324;28;20036;-77
2022/09/01 06:42:33;;;;;;;7.10;2.28;;;15.40;88.70;;;;;;4978845;28;20074;-77
2022/09/01 06:45:02;;;;;;;3.85;1.92;;;15.40;87.60;;;;;;4971854;28;20088;-77
2022/09/01 06:47:29;;;;;;;3.45;1.83;;;15.60;87.40;;;;;;4967459;28;20351;-77
2022/09/01 06:49:58;;;;;;;4.35;2.47;;;15.70;88.50;;;;;;4973774;28;20038;-78
2022/09/01 06:52:24;;;;;;;2.92;2.35;;;15.70;88.40;;;;;;4987787;28;20030;-77
2022/09/01 06:54:52;;;;;;;3.78;1.95;;;15.90;87.00;;;;;;4985543;28;20393;-77
2022/09/01 06:57:17;;;;;;;5.40;1.98;;;15.90;88.20;;;;;;4972091;28;20440;-77
2022/09/01 06:59:43;;;;;;;6.07;1.95;;;16.00;88.80;;;;;;4980257;28;20034;-78
2022/09/01 07:02:10;;;;;;;4.40;2.15;;;16.30;87.40;;;;;;4975727;28;20038;-77
2022/09/01 07:04:41;;;;;;;8.63;2.30;;;16.20;86.80;;;;;;4972694;28;20579;-77
2022/09/01 07:07:08;;;;;;;5.80;2.25;;;16.40;86.90;;;;;;4971107;28;20466;-77
2022/09/01 07:09:34;;;;;;;4.97;1.67;;;16.50;86.40;;;;;;4966725;28;20033;-76
2022/09/01 07:12:02;;;;;;;2.60;1.50;;;16.50;85.90;;;;;;4970656;28;20489;-77
2022/09/01 07:14:28;;;;;;;12.80;1.90;;;16.70;86.10;;;;;;4973515;28;20038;-76
2022/09/01 07:16:54;;;;;;;2.97;1.92;;;16.80;85.90;;;;;;4985645;28;20084;-77
2022/09/01 07:19:20;;;;;;;3.55;1.63;;;16.90;85.30;;;;;;4984604;28;20914;-77
2022/09/01 07:21:45;;;;;;;6.18;1.30;;;17.00;85.00;;;;;;4968893;28;20508;-77
2022/09/01 07:24:11;;;;;;;3.92;1.98;;;17.20;84.10;;;;;;4982058;28;20080;-77
2022/09/01 07:26:37;;;;;;;3.50;1.45;;;17.30;84.00;;;;;;4974462;28;20263;-77
2022/09/01 07:29:04;;;;;;;3.10;1.42;;;17.40;83.70;;;;;;4985977;28;20034;-77
2022/09/01 07:31:37;;;;;;;7.10;1.45;;;17.40;83.60;;;;;;4957244;28;20537;-77
2022/09/01 07:34:04;;;;;;;4.05;1.40;;;17.70;80.80;;;;;;4983954;28;20037;-77
2022/09/01 07:36:31;;;;;;;4.63;1.65;;;18.10;80.60;;;;;;4956123;28;20034;-78
2022/09/01 07:38:58;;;;;;;2.83;1.40;;;18.20;79.80;;;;;;4971495;28;20604;-77
2022/09/01 07:41:25;;;;;;;7.03;2.03;;;18.30;78.80;;;;;;4986963;28;20030;-78
2022/09/01 07:43:51;;;;;;;3.22;1.20;;;18.30;80.90;;;;;;4970670;28;20873;-78
2022/09/01 07:46:20;;;;;;;1.30;1.00;;;18.30;81.00;;;;;;4981973;28;20026;-77
2022/09/01 07:48:47;;;;;;;2.83;1.13;;;18.30;81.00;;;;;;4973352;28;20034;-78
2022/09/01 07:51:17;;;;;;;1.35;1.02;;;18.50;79.40;;;;;;4970986;28;20393;-78
2022/09/01 07:53:44;;;;;;;1.77;1.25;;;18.80;77.80;;;;;;4982955;28;20030;-78
2022/09/01 07:56:11;;;;;;;4.03;1.92;;;19.20;76.30;;;;;;4956516;28;20050;-78
2022/09/01 07:58:37;;;;;;;2.47;1.17;;;19.30;76.50;;;;;;4966963;28;24820;-79
2022/09/01 08:01:07;;;;;;;4.22;1.23;;;19.60;74.60;;;;;;4967991;28;20091;-76
2022/09/01 08:03:33;;;;;;;2.65;1.00;;;19.50;74.50;;;;;;4955696;28;20529;-77
2022/09/01 08:06:09;;;;;;;1.20;0.90;;;19.60;74.60;;;;;;4966343;28;20037;-77
2022/09/01 08:08:35;;;;;;;3.15;0.93;;;19.90;73.00;;;;;;4968687;28;20499;-77
2022/09/01 08:11:01;;;;;;;3.25;1.30;;;20.30;71.60;;;;;;4958328;28;20033;-78
2022/09/01 08:13:26;;;;;;;2.80;1.30;;;20.40;71.00;;;;;;4970836;28;20038;-77
2022/09/01 08:15:52;;;;;;;3.17;1.17;;;20.60;69.90;;;;;;4958066;28;20035;-76
2022/09/01 08:18:18;;;;;;;2.70;0.80;;;20.60;71.00;;;;;;4981892;28;20513;-76
2022/09/01 08:20:45;;;;;;;3.58;1.15;;;20.40;69.80;;;;;;4964316;28;20117;-77
2022/09/01 08:23:13;;;;;;;5.18;1.33;;;20.30;72.50;;;;;;4965116;28;20488;-77
2022/09/01 08:25:40;;;;;;;2.83;0.90;;;20.20;72.40;;;;;;4972685;28;20060;-78
2022/09/01 08:28:06;;;;;;;1.90;0.88;;;20.20;72.30;;;;;;4984181;28;20064;-77
2022/09/01 08:30:32;;;;;;;2.55;1.30;;;20.20;70.90;;;;;;4957773;28;20510;-77
2022/09/01 08:32:59;;;;;;;3.33;1.02;;;20.30;70.50;;;;;;4983864;28;20037;-78
2022/09/01 08:35:25;;;;;;;2.63;0.95;;;20.50;70.90;;;;;;4955435;28;20060;-78
2022/09/01 08:38:00;;;;;;;3.53;0.80;;;20.50;69.40;;;;;;4953924;28;20497;-79
2022/09/01 08:40:26;;;;;;;2.73;0.70;;;20.70;67.20;;;;;;4971557;28;20056;-79
2022/09/01 08:43:11;;;;;;;2.33;0.88;;;20.90;67.70;;;;;;4983997;28;20767;-78
2022/09/01 08:45:55;;;;;;;3.15;0.88;;;20.80;67.50;;;;;;4997603;28;20041;-77
2022/09/01 08:48:27;;;;;;;3.33;0.80;;;21.00;68.50;;;;;;4980236;28;20112;-78
2022/09/01 08:50:56;;;;;;;2.33;1.20;;;21.10;67.30;;;;;;4953319;28;20030;-78
2022/09/01 08:53:25;;;;;;;1.35;0.98;;;21.50;66.70;;;;;;4968120;28;20128;-78
2022/09/01 08:55:53;;;;;;;4.03;0.90;;;21.40;66.10;;;;;;4967458;28;20192;-78
2022/09/01 08:58:19;;;;;;;1.65;1.00;;;22.00;66.70;;;;;;4970509;28;20403;-80
2022/09/01 09:00:47;;;;;;;1.98;0.80;;;21.70;65.70;;;;;;4974294;28;20037;-80
2022/09/01 09:03:25;;;;;;;2.72;1.38;;;21.60;67.10;;;;;;4955258;28;20037;-78
2022/09/01 09:05:59;;;;;;;1.65;1.00;;;21.80;65.00;;;;;;4972425;28;20446;-78
2022/09/01 09:08:35;;;;;;;5.85;0.98;;;21.60;64.10;;;;;;4985672;28;20034;-78
2022/09/01 09:11:20;;;;;;;3.63;0.90;;;21.80;63.80;;;;;;4969415;28;20091;-77
2022/09/01 09:14:16;;;;;;;2.38;0.95;;;22.20;64.60;;;;;;4986536;28;20043;-80
2022/09/01 09:17:03;;;;;;;2.90;0.95;;;22.10;64.80;;;;;;4975717;28;20030;-77
2022/09/01 09:19:38;;;;;;;1.55;0.80;;;22.60;64.10;;;;;;4963574;28;20093;-78
2022/09/01 09:22:11;;;;;;;1.55;0.93;;;22.40;64.60;;;;;;4969279;28;20449;-78
2022/09/01 09:24:49;;;;;;;2.25;0.80;;;22.50;63.70;;;;;;4972220;28;20078;-80
2022/09/01 09:27:19;;;;;;;4.18;1.00;;;22.70;63.30;;;;;;4973005;28;20542;-79
2022/09/01 09:29:49;;;;;;;3.90;1.00;;;22.80;63.70;;;;;;4970473;28;20039;-80
2022/09/01 09:32:15;;;;;;;2.25;1.10;;;22.80;63.20;;;;;;4970631;28;20065;-79
2022/09/01 09:34:42;;;;;;;1.13;0.77;;;23.30;62.80;;;;;;4967904;28;20123;-80
2022/09/01 09:37:26;;;;;;;2.53;0.80;;;23.50;60.20;;;;;;4955005;28;20374;-79
2022/09/01 09:40:13;;;;;;;2.60;0.50;;;23.60;61.50;;;;;;4982924;28;20141;-79
2022/09/01 09:43:00;;;;;;;3.55;0.60;;;24.10;60.30;;;;;;4970762;28;20038;-80
2022/09/01 09:45:38;;;;;;;1.98;0.73;;;23.60;60.10;;;;;;4970313;28;20077;-79
2022/09/01 09:48:08;;;;;;;3.60;0.70;;;23.40;59.30;;;;;;4978577;28;20077;-79
2022/09/01 09:50:39;;;;;;;2.35;0.77;;;23.80;60.30;;;;;;4953148;28;20046;-79
2022/09/01 09:53:27;;;;;;;3.45;1.10;;;24.40;58.90;;;;;;4983230;28;20699;-80
2022/09/01 09:55:58;;;;;;;3.78;1.08;;;23.90;60.40;;;;;;4999719;28;20498;-80
2022/09/01 09:58:33;;;;;;;2.13;1.05;;;23.90;60.60;;;;;;4973383;28;20494;-80
2022/09/01 10:01:14;;;;;;;3.22;1.00;;;23.90;60.50;;;;;;4980616;28;20069;-80
2022/09/01 10:03:48;;;;;;;2.85;0.70;;;23.90;58.80;;;;;;4958926;28;20409;-80
2022/09/01 10:06:34;;;;;;;4.50;1.58;;;24.30;59.20;;;;;;4954468;28;20042;-80
2022/09/01 10:09:23;;;;;;;5.05;1.13;;;23.80;58.00;;;;;;4978124;28;20042;-80
2022/09/01 10:11:51;;;;;;;2.92;1.00;;;24.20;58.60;;;;;;4976618;28;20032;-80
2022/09/01 10:14:22;;;;;;;2.33;1.02;;;24.60;59.10;;;;;;4955972;28;20116;-79
2022/09/01 10:16:59;;;;;;;5.72;1.13;;;24.30;57.90;;;;;;4980626;28;20390;-79
2022/09/01 10:19:29;;;;;;;2.95;0.88;;;24.70;59.50;;;;;;4965942;28;20406;-80
2022/09/01 10:21:55;;;;;;;3.08;1.20;;;25.20;58.40;;;;;;4974512;28;20031;-79
2022/09/01 10:24:32;;;;;;;1.75;0.93;;;25.20;58.10;;;;;;4954854;28;20052;-77
2022/09/01 10:27:22;;;;;;;7.32;1.00;;;25.00;59.20;;;;;;4956661;28;20057;-78
2022/09/01 10:29:55;;;;;;;2.05;1.00;;;24.70;58.10;;;;;;4960084;28;20046;-79
2022/09/01 10:32:28;;;;;;;5.03;1.23;;;25.40;58.90;;;;;;4995878;28;20095;-80
2022/09/01 10:34:54;;;;;;;2.50;1.10;;;25.50;56.60;;;;;;4949176;28;20508;-80
2022/09/01 10:37:20;;;;;;;1.80;0.90;;;25.10;58.70;;;;;;4945399;28;20034;-80
2022/09/01 10:40:10;;;;;;;3.65;1.20;;;25.40;57.70;;;;;;4968178;28;20034;-80
2022/09/01 10:42:35;;;;;;;3.75;1.10;;;25.00;57.20;;;;;;5000910;28;20034;-79
2022/09/01 10:45:01;;;;;;;3.20;1.00;;;24.90;58.00;;;;;;4983231;28;20092;-80
2022/09/01 10:47:32;;;;;;;6.35;1.15;;;25.10;58.20;;;;;;4949968;28;20045;-81
2022/09/01 10:50:00;;;;;;;1.63;1.15;;;25.30;57.30;;;;;;4989593;28;20046;-80
2022/09/01 10:52:41;;;;;;;3.58;1.10;;;25.30;57.80;;;;;;4970511;28;20034;-80
2022/09/01 10:55:22;;;;;;;2.78;1.08;;;25.70;57.40;;;;;;5001569;28;20037;-80
2022/09/01 10:57:59;;;;;;;3.10;0.82;;;25.90;56.30;;;;;;4985796;28;20518;-81
2022/09/01 11:00:33;;;;;;;2.50;1.30;;;25.70;58.50;;;;;;4966578;28;20482;-81
2022/09/01 11:03:20;;;;;;;2.33;1.13;;;25.70;56.40;;;;;;4976707;28;20156;-82
2022/09/01 11:06:21;;;;;;;4.22;1.08;;;26.00;56.50;;;;;;4990759;28;20394;-81
2022/09/01 11:08:57;;;;;;;3.63;1.17;;;25.80;56.60;;;;;;4984369;28;20048;-81
2022/09/01 11:11:41;;;;;;;5.03;1.33;;;25.70;54.80;;;;;;4972605;28;20076;-81
2022/09/01 11:14:18;;;;;;;1.92;1.00;;;25.60;56.10;;;;;;4998970;28;20121;-81
2022/09/01 11:17:15;;;;;;;2.05;1.17;;;25.70;58.30;;;;;;4937925;28;20027;-82
2022/09/01 11:19:59;;;;;;;5.60;1.25;;;26.40;56.90;;;;;;4973104;28;20031;-82
2022/09/01 11:22:30;;;;;;;6.75;0.95;;;26.50;54.70;;;;;;4974921;28;20033;-82
2022/09/01 11:25:36;;;;;;;2.65;0.98;;;26.50;55.80;;;;;;4977999;28;20133;-82
2022/09/01 11:28:03;;;;;;;;;;;26.50;54.80;;;;;;4974977;28;20087;-83
2022/09/01 11:30:32;;;;;;;4.47;1.02;;;26.80;55.40;;;;;;4999333;28;19960;-83
2022/09/01 11:33:07;;;;;;;3.55;1.27;;;26.50;54.50;;;;;;4990600;28;20426;-84
2022/09/01 11:35:33;;;;;;;5.25;1.60;;;26.70;53.80;;;;;;4971503;28;20033;-84
2022/09/01 11:38:06;;;;;;;2.22;1.30;;;26.70;54.50;;;;;;4950855;28;20402;-84
2022/09/01 11:40:32;;;;;;;3.40;1.17;;;26.60;54.60;;;;;;4941951;28;20081;-84
2022/09/01 11:43:00;;;;;;;4.85;1.02;;;26.90;53.90;;;;;;4952648;28;20146;-84
2022/09/01 11:45:31;;;;;;;3.13;1.02;;;27.00;54.20;;;;;;4969894;28;20029;-84
2022/09/01 11:48:05;;;;;;;4.10;1.15;;;27.40;54.40;;;;;;4978592;28;20137;-84
2022/09/01 11:50:36;;;;;;;3.15;1.27;;;27.00;53.70;;;;;;4956860;28;20065;-85
2022/09/01 11:53:07;;;;;;;3.13;1.00;;;26.90;53.10;;;;;;4965531;28;20025;-84
2022/09/01 11:55:43;;;;;;;1.45;1.10;;;27.40;53.00;;;;;;4979220;28;20498;-85
2022/09/01 11:58:29;;;;;;;6.00;1.30;;;27.40;54.10;;;;;;4976731;28;20038;-85
2022/09/01 12:01:17;;;;;;;1.95;1.05;;;27.60;52.50;;;;;;4984757;28;20502;-85
2022/09/01 12:03:43;;;;;;;1.75;1.00;;;28.10;52.60;;;;;;4972652;28;20037;-85
2022/09/01 12:06:10;;;;;;;1.50;1.40;;;28.80;51.00;;;;;;4973858;28;20046;-85
2022/09/01 12:08:41;;;;;;;2.13;0.70;;;28.30;50.60;;;;;;4942934;28;20410;-86
2022/09/01 12:11:11;;;;;;;1.13;0.93;;;28.20;52.40;;;;;;4969774;28;20177;-86
2022/09/01 12:13:39;;;;;;;4.05;1.05;;;28.50;52.10;;;;;;4970745;28;20036;-85
2022/09/01 12:16:07;;;;;;;5.40;1.20;;;27.90;51.40;;;;;;4969971;28;20026;-86
2022/09/01 12:18:42;;;;;;;3.33;0.90;;;27.80;52.10;;;;;;4965267;28;20745;-85
2022/09/01 12:21:15;;;;;;;2.67;1.30;;;27.90;52.80;;;;;;4951839;28;20141;-86
2022/09/01 12:23:48;;;;;;;6.30;1.48;;;27.80;49.40;;;;;;4930467;28;20042;-85
2022/09/01 12:26:16;;;;;;;5.95;1.45;;;27.60;50.90;;;;;;4925450;28;20522;-86
2022/09/01 12:28:42;;;;;;;7.35;2.10;;;28.40;50.80;;;;;;4954588;28;20034;-85
2022/09/01 12:31:16;;;;;;;2.85;0.80;;;28.10;50.40;;;;;;4927912;28;20634;-86
2022/09/01 12:33:50;;;;;;;4.13;1.10;;;28.30;52.20;;;;;;4938876;28;20422;-86
2022/09/01 12:36:25;;;;;;;6.25;1.30;;;28.60;51.10;;;;;;4938786;28;20615;-86
2022/09/01 12:38:52;;;;;;;4.55;1.40;;;28.40;49.70;;;;;;4987454;28;20379;-86
2022/09/01 12:41:37;;;;;;;5.07;1.55;;;28.20;50.10;;;;;;4966790;28;20081;-86
2022/09/01 12:44:45;;;;;;;2.75;1.30;;;28.00;48.40;;;;;;4955952;28;20041;-85
2022/09/01 12:47:35;;;;;;;4.00;1.15;;;28.20;51.90;;;;;;4981313;28;20604;-86
2022/09/01 12:50:06;;;;;;;3.70;1.10;;;28.30;51.50;;;;;;4971791;28;20041;-87
2022/09/01 12:52:33;;;;;;;1.55;1.10;;;28.50;51.70;;;;;;4948719;28;20030;-84
2022/09/01 12:54:58;;;;;;;3.22;0.95;;;28.90;51.30;;;;;;4965997;28;20047;-83
2022/09/01 12:57:28;;;;;;;2.72;1.20;;;29.10;50.70;;;;;;4986967;28;20482;-83
2022/09/01 13:00:16;;;;;;;3.08;0.90;;;29.60;48.50;;;;;;4957826;28;20513;-83
2022/09/01 13:02:44;;;;;;;2.17;1.17;;;29.50;50.60;;;;;;4998099;28;20438;-83
2022/09/01 13:05:26;;;;;;;3.80;1.02;;;29.70;49.10;;;;;;4959104;28;20140;-84
2022/09/01 13:07:53;;;;;;;4.88;1.17;;;29.90;50.10;;;;;;4988574;28;20049;-82